Capitol Logistics 7453

Operating for MZN



KORD
Chicago O'Hare International Airport
Chicago, Illinois
KRIV
March Air Reserve Base
Riverside, California

Activity Log

Date Flight Route Aircraft Duration
No Flights Yet

Route Details

Aircraft Information
Primary: Boeing 737-800BCF
Backup: Boeing 757-200SF
Route Data
Distance: 1466nm
Duration: 4h 13m
Recm'd Route: OLINN OREOS OBENE OGALE LNK J60 HCT J128 HBU J146 DVC PGS TRM ARKOE1
Origin Wx: KORD 180251Z 06005KT 10SM FEW250 06/M06 A2997 RMK AO2 SLP151 T00611056 51010 $
Dest. Wx: KRIV 180158Z AUTO 31006KT 10SM CLR 21/09 A2991 RMK AO2 SLP122 T02070090
Notes: